Time;durP1;ratioP1;P1;durP2;ratioP2;P2;SDS_P1;SDS_P2;PMS_P1;PMS_P2;Temp;Humidity;BMP_temperature;BMP_pressure;BME280_temperature;BME280_humidity;BME280_pressure;Samples;Min_cycle;Max_cycle;Signal;HPM_P1;HPM_P2
2023/07/02 00:01:45;;;;;;;3.88;2.30;;;;;;;;;;5020443;28;20093;-69
2023/07/02 00:04:13;;;;;;;6.10;2.20;;;;;;;;;;5020298;28;20096;-76
2023/07/02 00:06:40;;;;;;;7.32;2.47;;;;;;;;;;5019989;28;20029;-72
2023/07/02 00:09:12;;;;;;;6.20;2.20;;;;;;;;;;5019809;28;20049;-76
2023/07/02 00:11:39;;;;;;;6.43;2.50;;;;;;;;;;5019996;28;20034;-75
2023/07/02 00:14:08;;;;;;;4.82;2.53;;;;;;;;;;5019967;28;20060;-72
2023/07/02 00:16:35;;;;;;;4.07;2.25;;;;;;;;;;5020351;28;20036;-74
2023/07/02 00:19:00;;;;;;;4.97;2.40;;;;;;;;;;5019954;28;20202;-67
2023/07/02 00:21:29;;;;;;;3.90;2.22;;;;;;;;;;5020142;28;20032;-76
2023/07/02 00:23:56;;;;;;;6.38;2.65;;;;;;;;;;5019759;28;20037;-76
2023/07/02 00:26:24;;;;;;;5.22;2.65;;;;;;;;;;5020128;28;20090;-76
2023/07/02 00:28:49;;;;;;;6.22;2.53;;;;;;;;;;5020013;28;20071;-75
2023/07/02 00:31:15;;;;;;;5.35;2.50;;;;;;;;;;5020041;28;20037;-71
2023/07/02 00:33:40;;;;;;;4.95;2.20;;;;;;;;;;5019676;28;20240;-73
2023/07/02 00:36:05;;;;;;;7.13;2.78;;;;;;;;;;5020018;28;20029;-76
2023/07/02 00:38:31;;;;;;;4.57;2.42;;;;;;;;;;5019759;28;20045;-76
2023/07/02 00:40:56;;;;;;;3.78;2.38;;;;;;;;;;5019739;28;20329;-76
2023/07/02 00:43:22;;;;;;;5.18;2.90;;;;;;;;;;5019918;28;20040;-70
2023/07/02 00:45:48;;;;;;;5.65;3.08;;;;;;;;;;5019808;28;20018;-76
2023/07/02 00:48:13;;;;;;;6.25;2.50;;;;;;;;;;5019738;28;20396;-76
2023/07/02 00:50:39;;;;;;;5.05;2.45;;;;;;;;;;5019573;28;20026;-75
2023/07/02 00:53:04;;;;;;;5.65;2.60;;;;;;;;;;5019496;28;20026;-76
2023/07/02 00:55:30;;;;;;;5.72;2.83;;;;;;;;;;5023159;28;20025;-76
2023/07/02 00:57:56;;;;;;;6.15;2.95;;;;;;;;;;5023420;28;20105;-73
2023/07/02 01:00:22;;;;;;;5.20;2.60;;;;;;;;;;5023237;28;20025;-76
2023/07/02 01:02:58;;;;;;;5.00;1.90;;;;;;;;;;5023160;28;20037;-74
2023/07/02 01:05:26;;;;;;;4.90;2.40;;;;;;;;;;5023305;28;20046;-76
2023/07/02 01:07:52;;;;;;;3.60;2.30;;;;;;;;;;5022798;28;20030;-76
2023/07/02 01:10:17;;;;;;;5.40;2.40;;;;;;;;;;5023237;28;20041;-74
2023/07/02 01:12:44;;;;;;;4.95;2.67;;;;;;;;;;5023092;28;20088;-76
2023/07/02 01:15:10;;;;;;;3.80;2.15;;;;;;;;;;5023041;28;20314;-75
2023/07/02 01:17:41;;;;;;;5.78;2.55;;;;;;;;;;5023282;28;20030;-75
2023/07/02 01:20:09;;;;;;;5.70;2.72;;;;;;;;;;5022914;28;20061;-76
2023/07/02 01:22:34;;;;;;;3.63;2.38;;;;;;;;;;5022622;28;20030;-75
2023/07/02 01:25:00;;;;;;;7.97;2.42;;;;;;;;;;5022927;28;20101;-76
2023/07/02 01:27:29;;;;;;;4.13;2.33;;;;;;;;;;5022766;28;20037;-76
2023/07/02 01:29:55;;;;;;;5.75;2.85;;;;;;;;;;5022898;28;20145;-77
2023/07/02 01:32:22;;;;;;;6.70;2.60;;;;;;;;;;5022821;28;20045;-75
2023/07/02 01:34:53;;;;;;;4.05;2.25;;;;;;;;;;5022825;28;20033;-77
2023/07/02 01:37:19;;;;;;;3.67;2.28;;;;;;;;;;5022491;28;20103;-77
2023/07/02 01:39:44;;;;;;;7.50;2.70;;;;;;;;;;5022526;28;20041;-72
2023/07/02 01:42:17;;;;;;;5.57;2.15;;;;;;;;;;5022359;28;20096;-76
2023/07/02 01:44:47;;;;;;;3.90;2.17;;;;;;;;;;5022514;28;20021;-74
2023/07/02 01:47:13;;;;;;;;;;;;;;;;;;5022979;28;20064;-76
2023/07/02 01:49:38;;;;;;;4.40;2.38;;;;;;;;;;5022709;28;19913;-73
2023/07/02 01:52:05;;;;;;;5.60;2.55;;;;;;;;;;5021962;28;20033;-75
2023/07/02 01:54:32;;;;;;;8.75;2.70;;;;;;;;;;5022366;28;20077;-69
2023/07/02 01:56:57;;;;;;;8.45;2.75;;;;;;;;;;5022295;28;20097;-76
2023/07/02 01:59:23;;;;;;;5.45;2.83;;;;;;;;;;5022200;28;20049;-76
2023/07/02 02:01:48;;;;;;;5.78;2.40;;;;;;;;;;5022102;28;20054;-76
2023/07/02 02:04:14;;;;;;;5.53;2.42;;;;;;;;;;5022420;28;20326;-76
2023/07/02 02:06:40;;;;;;;7.63;2.78;;;;;;;;;;5021077;28;20022;-76
2023/07/02 02:09:06;;;;;;;4.35;2.42;;;;;;;;;;5021884;28;20104;-76
2023/07/02 02:11:32;;;;;;;6.10;2.55;;;;;;;;;;5022007;28;20033;-75
2023/07/02 02:13:58;;;;;;;6.07;2.75;;;;;;;;;;5022002;28;20037;-76
2023/07/02 02:16:24;;;;;;;5.80;2.78;;;;;;;;;;5021472;28;20037;-76
2023/07/02 02:18:51;;;;;;;5.75;2.42;;;;;;;;;;5021698;28;20037;-76
2023/07/02 02:21:17;;;;;;;5.28;2.25;;;;;;;;;;5021825;28;20030;-75
2023/07/02 02:23:43;;;;;;;3.90;2.28;;;;;;;;;;5021663;28;20056;-73
2023/07/02 02:26:08;;;;;;;4.45;2.80;;;;;;;;;;5021767;28;20025;-76
2023/07/02 02:28:34;;;;;;;3.75;2.05;;;;;;;;;;5021695;28;20116;-76
2023/07/02 02:30:59;;;;;;;4.25;2.33;;;;;;;;;;5021729;28;20029;-76
2023/07/02 02:33:25;;;;;;;4.43;2.42;;;;;;;;;;5021503;28;20061;-76
2023/07/02 02:35:50;;;;;;;3.35;2.15;;;;;;;;;;5021417;28;20029;-76
2023/07/02 02:38:16;;;;;;;5.63;2.53;;;;;;;;;;5021460;28;20041;-76
2023/07/02 02:40:41;;;;;;;3.85;2.30;;;;;;;;;;5021399;28;20072;-74
2023/07/02 02:43:07;;;;;;;4.72;2.33;;;;;;;;;;5021054;28;20037;-76
2023/07/02 02:45:32;;;;;;;4.63;2.22;;;;;;;;;;5020650;28;20287;-76
2023/07/02 02:47:57;;;;;;;4.03;2.42;;;;;;;;;;5021029;28;20056;-76
2023/07/02 02:50:23;;;;;;;5.03;2.65;;;;;;;;;;5021266;28;20029;-76
2023/07/02 02:52:48;;;;;;;5.15;2.80;;;;;;;;;;5020692;28;20021;-76
2023/07/02 02:55:13;;;;;;;4.88;2.40;;;;;;;;;;5021228;28;20471;-76
2023/07/02 02:57:39;;;;;;;5.32;2.60;;;;;;;;;;5021080;28;20029;-76
2023/07/02 03:00:06;;;;;;;6.20;2.38;;;;;;;;;;5021385;28;20036;-76
2023/07/02 03:02:32;;;;;;;6.80;2.40;;;;;;;;;;5021037;28;20037;-76
2023/07/02 03:05:02;;;;;;;4.00;2.30;;;;;;;;;;5021063;28;20030;-75
2023/07/02 03:07:28;;;;;;;6.00;3.00;;;;;;;;;;5020755;28;20095;-70
2023/07/02 03:09:54;;;;;;;5.18;2.63;;;;;;;;;;5021052;28;20085;-76
2023/07/02 03:12:19;;;;;;;4.25;2.17;;;;;;;;;;5021009;28;20265;-76
2023/07/02 03:14:44;;;;;;;4.78;2.55;;;;;;;;;;5020963;28;20045;-75
2023/07/02 03:17:10;;;;;;;5.70;2.60;;;;;;;;;;5020686;28;20064;-76
2023/07/02 03:19:35;;;;;;;4.90;2.75;;;;;;;;;;5020855;28;20022;-76
2023/07/02 03:22:01;;;;;;;4.07;2.60;;;;;;;;;;5020581;28;20036;-76
2023/07/02 03:24:26;;;;;;;5.60;2.53;;;;;;;;;;5020829;28;20125;-75
2023/07/02 03:26:52;;;;;;;6.63;2.50;;;;;;;;;;5020408;28;20025;-71
2023/07/02 03:29:19;;;;;;;4.60;2.80;;;;;;;;;;5020910;28;20034;-74
2023/07/02 03:31:45;;;;;;;7.20;2.97;;;;;;;;;;5020724;28;20029;-76
2023/07/02 03:34:11;;;;;;;7.60;2.88;;;;;;;;;;5020311;28;20480;-76
2023/07/02 03:36:37;;;;;;;5.93;2.90;;;;;;;;;;5020580;28;20030;-76
2023/07/02 03:39:03;;;;;;;6.63;3.13;;;;;;;;;;5020403;28;20137;-76
2023/07/02 03:41:29;;;;;;;4.03;2.60;;;;;;;;;;5020208;28;20044;-76
2023/07/02 03:43:54;;;;;;;7.68;3.22;;;;;;;;;;5019398;28;20029;-76
2023/07/02 03:46:20;;;;;;;7.53;3.08;;;;;;;;;;5020314;28;20033;-76
2023/07/02 03:48:45;;;;;;;5.47;2.50;;;;;;;;;;5020435;28;20036;-76
2023/07/02 03:51:14;;;;;;;7.07;2.90;;;;;;;;;;5020591;28;20026;-76
2023/07/02 03:53:39;;;;;;;6.32;3.20;;;;;;;;;;5020028;28;20037;-71
2023/07/02 03:56:05;;;;;;;6.38;3.03;;;;;;;;;;5020336;28;20064;-75
2023/07/02 03:58:30;;;;;;;8.73;3.53;;;;;;;;;;5020302;28;20030;-76
2023/07/02 04:00:55;;;;;;;6.20;3.78;;;;;;;;;;5020325;28;20025;-76
2023/07/02 04:03:21;;;;;;;6.50;3.80;;;;;;;;;;5020177;28;20050;-75
2023/07/02 04:05:46;;;;;;;6.88;3.75;;;;;;;;;;5020295;28;20040;-76
2023/07/02 04:08:12;;;;;;;7.45;3.78;;;;;;;;;;5019914;28;20102;-70
2023/07/02 04:10:37;;;;;;;6.82;3.08;;;;;;;;;;5020264;28;20022;-76
2023/07/02 04:13:03;;;;;;;6.85;3.03;;;;;;;;;;5020074;28;20384;-76
2023/07/02 04:15:28;;;;;;;6.35;2.60;;;;;;;;;;5018988;28;20033;-66
2023/07/02 04:17:53;;;;;;;5.00;3.00;;;;;;;;;;5020051;28;20030;-77
2023/07/02 04:20:20;;;;;;;8.65;2.90;;;;;;;;;;5020100;28;20097;-76
2023/07/02 04:22:46;;;;;;;5.30;2.95;;;;;;;;;;5019718;28;20037;-77
2023/07/02 04:25:14;;;;;;;5.55;2.58;;;;;;;;;;5019957;28;20064;-77
2023/07/02 04:27:42;;;;;;;5.90;3.05;;;;;;;;;;5019956;28;20093;-67
2023/07/02 04:30:08;;;;;;;9.00;2.55;;;;;;;;;;5023030;28;20322;-75
2023/07/02 04:32:33;;;;;;;6.78;2.80;;;;;;;;;;5023873;28;20042;-76
2023/07/02 04:34:59;;;;;;;6.15;2.58;;;;;;;;;;5023816;28;20360;-76
2023/07/02 04:37:24;;;;;;;5.55;2.40;;;;;;;;;;5023244;28;20408;-71
2023/07/02 04:39:49;;;;;;;6.15;2.40;;;;;;;;;;5023756;28;20030;-76
2023/07/02 04:42:15;;;;;;;4.20;2.10;;;;;;;;;;5023695;28;20037;-76
2023/07/02 04:44:43;;;;;;;5.50;2.03;;;;;;;;;;5023564;28;20072;-75
2023/07/02 04:47:08;;;;;;;5.60;1.70;;;;;;;;;;5023263;28;20452;-76
2023/07/02 04:49:34;;;;;;;8.32;2.78;;;;;;;;;;5023643;28;20038;-75
2023/07/02 04:51:59;;;;;;;3.65;2.13;;;;;;;;;;5023164;28;20026;-76
2023/07/02 04:54:24;;;;;;;3.03;1.60;;;;;;;;;;5023381;28;20056;-75
2023/07/02 04:56:50;;;;;;;5.35;2.10;;;;;;;;;;5023408;28;20030;-76
2023/07/02 04:59:16;;;;;;;4.35;2.10;;;;;;;;;;5023382;28;20065;-68
2023/07/02 05:01:42;;;;;;;4.68;1.83;;;;;;;;;;5023518;28;20093;-75
2023/07/02 05:04:11;;;;;;;3.90;2.10;;;;;;;;;;5023055;28;20025;-77
2023/07/02 05:06:36;;;;;;;8.38;2.05;;;;;;;;;;5023221;28;20029;-75
2023/07/02 05:09:02;;;;;;;3.95;1.63;;;;;;;;;;5022831;28;20030;-75
2023/07/02 05:11:27;;;;;;;2.92;1.63;;;;;;;;;;5023086;28;20018;-76
2023/07/02 05:13:53;;;;;;;5.72;2.17;;;;;;;;;;5022854;28;20026;-72
2023/07/02 05:16:18;;;;;;;2.85;1.42;;;;;;;;;;5023255;28;20108;-75
2023/07/02 05:18:44;;;;;;;3.83;1.50;;;;;;;;;;5022968;28;20337;-76
2023/07/02 05:21:10;;;;;;;4.72;2.05;;;;;;;;;;5023111;28;20340;-76
2023/07/02 05:23:35;;;;;;;3.70;1.95;;;;;;;;;;5022464;28;20022;-76
2023/07/02 05:26:01;;;;;;;5.75;1.63;;;;;;;;;;5022839;28;20029;-76
2023/07/02 05:28:27;;;;;;;5.55;1.70;;;;;;;;;;5022654;28;20093;-76
2023/07/02 05:30:52;;;;;;;5.57;1.60;;;;;;;;;;5022933;28;20048;-76
2023/07/02 05:33:17;;;;;;;2.78;1.52;;;;;;;;;;5022538;28;20135;-75
2023/07/02 05:35:43;;;;;;;3.08;1.50;;;;;;;;;;5022761;28;20028;-76
2023/07/02 05:38:08;;;;;;;3.15;1.42;;;;;;;;;;5022255;28;20033;-69
2023/07/02 05:40:33;;;;;;;3.80;1.80;;;;;;;;;;5021507;28;20017;-76
2023/07/02 05:42:59;;;;;;;2.08;1.42;;;;;;;;;;5021528;28;20065;-76
2023/07/02 05:45:24;;;;;;;3.60;2.15;;;;;;;;;;5021451;28;20337;-75
2023/07/02 05:47:50;;;;;;;3.70;1.75;;;;;;;;;;5022230;28;20041;-76
2023/07/02 05:50:15;;;;;;;3.50;1.50;;;;;;;;;;5022459;28;20034;-72
2023/07/02 05:52:41;;;;;;;2.70;1.40;;;;;;;;;;5020961;28;20022;-76
2023/07/02 05:55:12;;;;;;;2.08;1.23;;;;;;;;;;5022127;28;20322;-73
2023/07/02 05:57:38;;;;;;;4.32;1.40;;;;;;;;;;5022496;28;20092;-76
2023/07/02 06:00:07;;;;;;;3.53;1.45;;;;;;;;;;5022138;28;20030;-75
2023/07/02 06:02:32;;;;;;;2.67;1.50;;;;;;;;;;5022312;28;20026;-72
2023/07/02 06:04:57;;;;;;;4.63;1.75;;;;;;;;;;5021999;28;20064;-73
2023/07/02 06:07:24;;;;;;;3.05;1.52;;;;;;;;;;5021674;28;20117;-69
2023/07/02 06:09:50;;;;;;;2.00;1.30;;;;;;;;;;5021915;28;20032;-76
2023/07/02 06:12:15;;;;;;;2.47;1.33;;;;;;;;;;5022187;28;20025;-76
2023/07/02 06:14:41;;;;;;;4.35;1.27;;;;;;;;;;5021738;28;20029;-69
2023/07/02 06:17:08;;;;;;;2.30;1.50;;;;;;;;;;5021949;28;20080;-74
2023/07/02 06:19:33;;;;;;;2.88;1.60;;;;;;;;;;5022017;28;20017;-73
2023/07/02 06:21:59;;;;;;;6.05;1.60;;;;;;;;;;5021531;28;20033;-75
2023/07/02 06:24:24;;;;;;;3.88;1.42;;;;;;;;;;5021333;28;20025;-74
2023/07/02 06:26:50;;;;;;;3.70;1.52;;;;;;;;;;5021619;28;20154;-76
2023/07/02 06:29:15;;;;;;;2.38;1.23;;;;;;;;;;5021735;28;20581;-74
2023/07/02 06:31:41;;;;;;;3.95;2.00;;;;;;;;;;5021665;28;20026;-76
2023/07/02 06:34:08;;;;;;;2.25;1.40;;;;;;;;;;5021337;28;20033;-75
2023/07/02 06:36:34;;;;;;;2.65;1.23;;;;;;;;;;5021369;28;20088;-76
2023/07/02 06:38:59;;;;;;;2.47;1.33;;;;;;;;;;5019900;28;20034;-73
2023/07/02 06:41:24;;;;;;;3.20;1.60;;;;;;;;;;5021447;28;20325;-68
2023/07/02 06:43:50;;;;;;;3.95;1.40;;;;;;;;;;5021261;28;20025;-75
2023/07/02 06:46:15;;;;;;;3.17;1.40;;;;;;;;;;5021346;28;20060;-76
2023/07/02 06:48:41;;;;;;;6.20;2.13;;;;;;;;;;5021152;28;20037;-76
2023/07/02 06:51:07;;;;;;;2.55;1.63;;;;;;;;;;5021321;28;20199;-75
2023/07/02 06:53:32;;;;;;;4.03;1.63;;;;;;;;;;5020775;28;20169;-66
2023/07/02 06:55:58;;;;;;;3.05;1.25;;;;;;;;;;5021210;28;20026;-76
2023/07/02 06:58:23;;;;;;;5.28;1.20;;;;;;;;;;5021012;28;20262;-76
2023/07/02 07:00:49;;;;;;;3.78;1.67;;;;;;;;;;5021007;28;20060;-76
2023/07/02 07:03:14;;;;;;;3.33;1.48;;;;;;;;;;5021183;28;20033;-76
2023/07/02 07:05:39;;;;;;;3.72;1.20;;;;;;;;;;5020985;28;20030;-77
2023/07/02 07:08:05;;;;;;;9.88;1.50;;;;;;;;;;5020816;28;20072;-68
2023/07/02 07:10:34;;;;;;;2.90;1.05;;;;;;;;;;5021234;28;20033;-76
2023/07/02 07:13:02;;;;;;;2.63;1.33;;;;;;;;;;5021053;28;20053;-75
2023/07/02 07:15:30;;;;;;;2.63;1.20;;;;;;;;;;5020598;28;20341;-75
2023/07/02 07:17:55;;;;;;;4.18;1.45;;;;;;;;;;5020954;28;20049;-79
2023/07/02 07:20:21;;;;;;;2.08;1.23;;;;;;;;;;5019899;28;20030;-77
2023/07/02 07:22:46;;;;;;;3.42;1.20;;;;;;;;;;5020361;28;20030;-76
2023/07/02 07:25:12;;;;;;;2.60;1.42;;;;;;;;;;5020813;28;20030;-72
2023/07/02 07:27:38;;;;;;;2.03;1.10;;;;;;;;;;5020694;28;20061;-83
2023/07/02 07:30:04;;;;;;;2.33;1.40;;;;;;;;;;5036052;28;20238;-70
2023/07/02 07:32:29;;;;;;;1.58;1.02;;;;;;;;;;5020589;28;20127;-77
2023/07/02 07:34:55;;;;;;;2.17;1.25;;;;;;;;;;5020221;28;20096;-76
2023/07/02 07:37:20;;;;;;;2.33;1.70;;;;;;;;;;5020228;28;20041;-79
2023/07/02 07:39:45;;;;;;;3.58;1.20;;;;;;;;;;5020136;28;20030;-74
2023/07/02 07:42:11;;;;;;;2.28;1.27;;;;;;;;;;5020522;28;20025;-71
2023/07/02 07:44:36;;;;;;;2.15;1.20;;;;;;;;;;5020356;28;20029;-71
2023/07/02 07:47:01;;;;;;;2.85;1.30;;;;;;;;;;5020102;28;20048;-74
2023/07/02 07:49:27;;;;;;;2.15;1.00;;;;;;;;;;5018896;28;20033;-73
2023/07/02 07:51:52;;;;;;;1.92;1.02;;;;;;;;;;5019990;28;20318;-73
2023/07/02 07:54:18;;;;;;;1.95;1.10;;;;;;;;;;5019895;28;20053;-74
2023/07/02 07:56:43;;;;;;;1.50;1.00;;;;;;;;;;5018914;28;20029;-73
2023/07/02 07:59:08;;;;;;;1.67;0.80;;;;;;;;;;5020226;28;20025;-71
2023/07/02 08:01:34;;;;;;;2.47;1.08;;;;;;;;;;5020039;28;20108;-73
2023/07/02 08:03:59;;;;;;;1.42;0.90;;;;;;;;;;5019367;28;20025;-71
2023/07/02 08:06:25;;;;;;;1.80;1.10;;;;;;;;;;5019970;28;20044;-73
2023/07/02 08:08:50;;;;;;;1.98;0.98;;;;;;;;;;5019645;28;20030;-72
2023/07/02 08:11:15;;;;;;;1.35;0.80;;;;;;;;;;5020048;28;20022;-73
2023/07/02 08:13:42;;;;;;;1.23;0.82;;;;;;;;;;5020038;28;20365;-74
2023/07/02 08:16:09;;;;;;;3.50;0.95;;;;;;;;;;5015198;28;20036;-71
2023/07/02 08:18:34;;;;;;;1.50;1.10;;;;;;;;;;5011258;28;20294;-73
2023/07/02 08:20:59;;;;;;;1.80;1.00;;;;;;;;;;5007575;28;20033;-73
2023/07/02 08:23:25;;;;;;;1.20;0.95;;;;;;;;;;5000156;28;20104;-73
2023/07/02 08:25:50;;;;;;;1.70;0.88;;;;;;;;;;5017203;28;20503;-71
2023/07/02 08:28:16;;;;;;;1.45;0.75;;;;;;;;;;5017499;28;20068;-74
2023/07/02 08:30:41;;;;;;;5.35;1.08;;;;;;;;;;5016480;28;20029;-74
2023/07/02 08:33:06;;;;;;;2.40;1.00;;;;;;;;;;5017065;28;20103;-74
2023/07/02 08:35:32;;;;;;;1.52;1.00;;;;;;;;;;5020992;28;20076;-72
2023/07/02 08:37:57;;;;;;;2.67;0.98;;;;;;;;;;5021616;28;20088;-73
2023/07/02 08:40:23;;;;;;;1.73;1.10;;;;;;;;;;5018156;28;20229;-72
2023/07/02 08:42:48;;;;;;;1.67;1.00;;;;;;;;;;5018066;28;20038;-72
2023/07/02 08:45:17;;;;;;;1.73;0.85;;;;;;;;;;5016278;28;20021;-69
2023/07/02 08:47:45;;;;;;;1.55;0.80;;;;;;;;;;5017510;28;20030;-70
2023/07/02 08:50:12;;;;;;;1.75;0.90;;;;;;;;;;5017783;28;20041;-70
2023/07/02 08:52:37;;;;;;;2.42;0.90;;;;;;;;;;5018369;28;20310;-68
2023/07/02 08:55:03;;;;;;;1.20;0.77;;;;;;;;;;5017918;28;20044;-70
2023/07/02 08:57:28;;;;;;;1.08;0.60;;;;;;;;;;5019570;28;20033;-73
2023/07/02 08:59:53;;;;;;;1.13;0.75;;;;;;;;;;5017900;28;20029;-70
2023/07/02 09:02:30;;;;;;;1.20;0.60;;;;;;;;;;5014800;28;20030;-68
2023/07/02 09:05:02;;;;;;;0.82;0.60;;;;;;;;;;5017884;28;20117;-72
2023/07/02 09:07:27;;;;;;;0.90;0.63;;;;;;;;;;5016147;28;20033;-75
2023/07/02 09:09:53;;;;;;;1.77;0.65;;;;;;;;;;5020822;28;20030;-74
2023/07/02 09:12:38;;;;;;;0.60;0.47;;;;;;;;;;5018365;28;20026;-71
2023/07/02 09:15:06;;;;;;;1.33;0.68;;;;;;;;;;5023413;28;20042;-72
2023/07/02 09:17:36;;;;;;;0.28;0.28;;;;;;;;;;5023677;28;20026;-71
2023/07/02 09:20:06;;;;;;;0.28;0.20;;;;;;;;;;5021169;28;20026;-73
2023/07/02 09:22:31;;;;;;;0.63;0.27;;;;;;;;;;5024898;28;20049;-71
2023/07/02 09:24:59;;;;;;;0.13;0.10;;;;;;;;;;5020605;28;20280;-66
2023/07/02 09:27:38;;;;;;;0.20;0.20;;;;;;;;;;5022878;28;20038;-71
2023/07/02 09:30:17;;;;;;;0.40;0.30;;;;;;;;;;5021363;28;20049;-71
2023/07/02 09:32:44;;;;;;;2.05;0.30;;;;;;;;;;5025738;28;20046;-73
2023/07/02 09:35:10;;;;;;;0.25;0.20;;;;;;;;;;5019165;28;20025;-75
2023/07/02 09:37:35;;;;;;;0.55;0.38;;;;;;;;;;5020677;28;20029;-72
2023/07/02 09:40:05;;;;;;;0.30;0.20;;;;;;;;;;5023198;28;20026;-74
2023/07/02 09:42:31;;;;;;;1.00;0.45;;;;;;;;;;5018695;28;20085;-67
2023/07/02 09:44:58;;;;;;;0.40;0.30;;;;;;;;;;5000326;28;20030;-72
2023/07/02 09:47:25;;;;;;;0.52;0.40;;;;;;;;;;5001233;28;20105;-73
2023/07/02 09:49:57;;;;;;;0.30;0.20;;;;;;;;;;5002516;28;20432;-73
2023/07/02 09:52:23;;;;;;;0.45;0.45;;;;;;;;;;5005549;28;20114;-73
2023/07/02 09:54:48;;;;;;;0.45;0.22;;;;;;;;;;5016053;28;20080;-73
2023/07/02 09:57:14;;;;;;;0.63;0.52;;;;;;;;;;5020940;28;20101;-73
2023/07/02 09:59:40;;;;;;;0.30;0.25;;;;;;;;;;5003733;28;20233;-74
2023/07/02 10:02:07;;;;;;;0.10;0.10;;;;;;;;;;5022287;28;20029;-74
2023/07/02 10:04:43;;;;;;;1.23;0.40;;;;;;;;;;5022142;28;20405;-72
2023/07/02 10:07:09;;;;;;;0.28;0.20;;;;;;;;;;5021588;28;20034;-70
2023/07/02 10:09:35;;;;;;;0.20;0.10;;;;;;;;;;5009597;28;20033;-74
2023/07/02 10:12:01;;;;;;;0.43;0.32;;;;;;;;;;5002124;28;20030;-73
2023/07/02 10:14:26;;;;;;;0.38;0.20;;;;;;;;;;5002301;28;20073;-73
2023/07/02 10:16:53;;;;;;;0.28;0.20;;;;;;;;;;5001922;28;20342;-74
2023/07/02 10:19:19;;;;;;;0.35;0.20;;;;;;;;;;5002173;28;20030;-74
2023/07/02 10:21:51;;;;;;;0.63;0.20;;;;;;;;;;5007342;28;20026;-73
2023/07/02 10:24:17;;;;;;;2.75;0.40;;;;;;;;;;5014668;28;20196;-73
2023/07/02 10:27:00;;;;;;;0.25;0.15;;;;;;;;;;5013452;28;20037;-71
2023/07/02 10:29:27;;;;;;;0.32;0.32;;;;;;;;;;5017381;28;20030;-73
2023/07/02 10:31:54;;;;;;;0.20;0.20;;;;;;;;;;5016822;28;20024;-73
2023/07/02 10:34:34;;;;;;;0.13;0.10;;;;;;;;;;5019248;28;20025;-74
2023/07/02 10:37:03;;;;;;;0.20;0.20;;;;;;;;;;5016477;28;21493;-73
2023/07/02 10:39:30;;;;;;;;;;;;;;;;;;5018359;28;20046;-73
2023/07/02 10:42:09;;;;;;;1.35;0.40;;;;;;;;;;5016192;28;19917;-73
2023/07/02 10:44:46;;;;;;;0.38;0.20;;;;;;;;;;5017130;28;20320;-73
2023/07/02 10:47:11;;;;;;;0.17;0.10;;;;;;;;;;5017836;28;20038;-73
2023/07/02 10:49:36;;;;;;;0.35;0.22;;;;;;;;;;5018663;28;20481;-73
2023/07/02 10:52:07;;;;;;;0.10;0.10;;;;;;;;;;5010968;28;20038;-72
2023/07/02 10:54:44;;;;;;;0.38;0.25;;;;;;;;;;5017251;28;20265;-71
2023/07/02 10:57:12;;;;;;;0.45;0.32;;;;;;;;;;5011287;28;20030;-74
2023/07/02 10:59:38;;;;;;;0.28;0.28;;;;;;;;;;5005968;28;20102;-73
2023/07/02 11:02:04;;;;;;;1.13;0.30;;;;;;;;;;5019793;28;20033;-73
2023/07/02 11:04:33;;;;;;;0.30;0.25;;;;;;;;;;5021146;28;20025;-74
2023/07/02 11:07:00;;;;;;;0.60;0.30;;;;;;;;;;5019241;28;20036;-73
2023/07/02 11:09:26;;;;;;;0.30;0.30;;;;;;;;;;5020663;28;20029;-73
2023/07/02 11:11:59;;;;;;;0.47;0.40;;;;;;;;;;5020683;28;20065;-74
2023/07/02 11:14:27;;;;;;;0.85;0.75;;;;;;;;;;5021092;28;20033;-73
2023/07/02 11:17:03;;;;;;;0.30;0.13;;;;;;;;;;5020557;28;20029;-74
2023/07/02 11:19:28;;;;;;;1.13;0.30;;;;;;;;;;5020855;28;20018;-74
2023/07/02 11:21:56;;;;;;;0.35;0.30;;;;;;;;;;5020284;28;20041;-74
2023/07/02 11:24:31;;;;;;;0.55;0.55;;;;;;;;;;5020665;28;20041;-78
2023/07/02 11:26:57;;;;;;;0.77;0.40;;;;;;;;;;5016291;28;20030;-74
2023/07/02 11:29:23;;;;;;;0.90;0.50;;;;;;;;;;5018544;28;20266;-76
2023/07/02 11:31:48;;;;;;;0.30;0.28;;;;;;;;;;5011062;28;20022;-77
2023/07/02 11:34:21;;;;;;;0.50;0.38;;;;;;;;;;5013064;28;20030;-73
2023/07/02 11:36:47;;;;;;;0.55;0.30;;;;;;;;;;5008882;28;20073;-76
2023/07/02 11:39:15;;;;;;;0.10;0.10;;;;;;;;;;5010221;28;20064;-76
2023/07/02 11:41:42;;;;;;;0.20;0.20;;;;;;;;;;5014936;28;20037;-77
2023/07/02 11:44:07;;;;;;;0.45;0.40;;;;;;;;;;5013273;28;20363;-73
2023/07/02 11:46:33;;;;;;;0.30;0.30;;;;;;;;;;5015116;28;20433;-77
2023/07/02 11:49:08;;;;;;;0.70;0.43;;;;;;;;;;5016247;28;20057;-73
2023/07/02 11:51:38;;;;;;;0.45;0.30;;;;;;;;;;5015229;28;20133;-81
2023/07/02 11:54:04;;;;;;;0.22;0.22;;;;;;;;;;5014217;28;20317;-74
2023/07/02 11:56:30;;;;;;;1.85;0.20;;;;;;;;;;5013745;28;20042;-74
2023/07/02 11:58:55;;;;;;;0.13;0.13;;;;;;;;;;5014886;28;20037;-73
2023/07/02 12:01:20;;;;;;;0.68;0.35;;;;;;;;;;5013857;28;20048;-75
2023/07/02 12:03:46;;;;;;;0.43;0.40;;;;;;;;;;5014907;28;20026;-74
2023/07/02 12:06:14;;;;;;;1.20;0.75;;;;;;;;;;5014019;28;20029;-74
2023/07/02 12:08:39;;;;;;;0.60;0.40;;;;;;;;;;5014306;28;20109;-72
2023/07/02 12:11:05;;;;;;;0.30;0.30;;;;;;;;;;5013164;28;20188;-73
2023/07/02 12:13:30;;;;;;;0.95;0.30;;;;;;;;;;5015451;28;20049;-75
2023/07/02 12:15:56;;;;;;;0.30;0.30;;;;;;;;;;5015393;28;20057;-71
2023/07/02 12:18:21;;;;;;;0.30;0.30;;;;;;;;;;5014428;28;20033;-74
2023/07/02 12:20:46;;;;;;;0.73;0.65;;;;;;;;;;5014733;28;20026;-75
2023/07/02 12:23:12;;;;;;;0.30;0.30;;;;;;;;;;5012835;28;20029;-73
2023/07/02 12:25:38;;;;;;;0.68;0.60;;;;;;;;;;5015285;28;20214;-75
2023/07/02 12:28:04;;;;;;;0.73;0.60;;;;;;;;;;5012189;28;20041;-74
2023/07/02 12:30:30;;;;;;;0.45;0.38;;;;;;;;;;5014201;28;20068;-76
2023/07/02 12:32:55;;;;;;;0.40;0.40;;;;;;;;;;5013714;28;20054;-72
2023/07/02 12:35:21;;;;;;;1.52;0.68;;;;;;;;;;5013234;28;20026;-73
2023/07/02 12:37:52;;;;;;;0.65;0.50;;;;;;;;;;5013774;28;20030;-72
2023/07/02 12:40:19;;;;;;;1.13;0.40;;;;;;;;;;5013391;28;20111;-79
2023/07/02 12:42:46;;;;;;;1.13;0.50;;;;;;;;;;5014964;28;20226;-76
2023/07/02 12:45:13;;;;;;;0.60;0.57;;;;;;;;;;5013714;28;20026;-71
2023/07/02 12:47:40;;;;;;;0.50;0.43;;;;;;;;;;5014116;28;20033;-73
2023/07/02 12:50:06;;;;;;;0.70;0.40;;;;;;;;;;5013751;28;20032;-72
2023/07/02 12:52:32;;;;;;;1.23;0.57;;;;;;;;;;5020705;28;20109;-78
2023/07/02 12:54:57;;;;;;;0.60;0.60;;;;;;;;;;5015004;28;20018;-71
2023/07/02 12:57:23;;;;;;;0.63;0.50;;;;;;;;;;5015733;28;21031;-74
2023/07/02 12:59:48;;;;;;;0.60;0.40;;;;;;;;;;5018055;28;20033;-75
2023/07/02 13:02:14;;;;;;;1.33;0.70;;;;;;;;;;5016520;28;20025;-75
2023/07/02 13:04:39;;;;;;;0.57;0.52;;;;;;;;;;5015196;28;20026;-75
2023/07/02 13:07:05;;;;;;;0.90;0.50;;;;;;;;;;5015629;28;20029;-71
2023/07/02 13:09:30;;;;;;;1.30;0.68;;;;;;;;;;5014506;28;20030;-72
2023/07/02 13:11:56;;;;;;;0.63;0.47;;;;;;;;;;5017961;28;20032;-76
2023/07/02 13:14:21;;;;;;;1.15;0.60;;;;;;;;;;5014397;28;20045;-66
2023/07/02 13:16:47;;;;;;;0.63;0.50;;;;;;;;;;5007698;28;20022;-66
2023/07/02 13:19:13;;;;;;;1.58;0.70;;;;;;;;;;5006841;28;20516;-72
2023/07/02 13:21:38;;;;;;;1.00;0.50;;;;;;;;;;5012653;28;20093;-78
2023/07/02 13:24:04;;;;;;;1.27;0.60;;;;;;;;;;5015897;28;20040;-72
2023/07/02 13:26:29;;;;;;;1.08;0.60;;;;;;;;;;5019923;28;20060;-75
2023/07/02 13:28:55;;;;;;;1.10;0.60;;;;;;;;;;5020393;28;20344;-74
2023/07/02 13:31:20;;;;;;;1.30;0.60;;;;;;;;;;5021856;28;20026;-75
2023/07/02 13:33:46;;;;;;;0.70;0.50;;;;;;;;;;5022781;28;20065;-75
2023/07/02 13:36:11;;;;;;;1.40;0.90;;;;;;;;;;5022012;28;20109;-74
2023/07/02 13:38:37;;;;;;;0.70;0.50;;;;;;;;;;5020900;28;20034;-76
2023/07/02 13:41:03;;;;;;;0.45;0.40;;;;;;;;;;5022152;28;20226;-75
2023/07/02 13:43:28;;;;;;;1.15;0.60;;;;;;;;;;5022095;28;20042;-78
2023/07/02 13:45:53;;;;;;;2.50;0.75;;;;;;;;;;5022365;28;20092;-75
2023/07/02 13:48:19;;;;;;;2.38;0.57;;;;;;;;;;5021389;28;20042;-76
2023/07/02 13:50:44;;;;;;;0.85;0.60;;;;;;;;;;5011223;28;20092;-76
2023/07/02 13:53:10;;;;;;;0.60;0.40;;;;;;;;;;5019643;28;20022;-74
2023/07/02 13:55:35;;;;;;;0.90;0.70;;;;;;;;;;5005734;28;20396;-75
2023/07/02 13:58:01;;;;;;;0.40;0.40;;;;;;;;;;5017860;28;20113;-73
2023/07/02 14:00:27;;;;;;;0.73;0.43;;;;;;;;;;5016853;28;20106;-74
2023/07/02 14:02:53;;;;;;;0.80;0.60;;;;;;;;;;5018536;28;20218;-74
2023/07/02 14:05:18;;;;;;;0.40;0.40;;;;;;;;;;5004525;28;20038;-74
2023/07/02 14:07:44;;;;;;;0.47;0.47;;;;;;;;;;4999817;28;20069;-73
2023/07/02 14:10:12;;;;;;;1.40;0.65;;;;;;;;;;5000450;28;20405;-74
2023/07/02 14:12:37;;;;;;;0.80;0.60;;;;;;;;;;5001924;28;20026;-73
2023/07/02 14:15:03;;;;;;;0.60;0.52;;;;;;;;;;5000389;28;20097;-73
2023/07/02 14:17:28;;;;;;;0.60;0.55;;;;;;;;;;5001128;28;20045;-74
2023/07/02 14:19:54;;;;;;;0.88;0.50;;;;;;;;;;5001592;28;20018;-74
2023/07/02 14:22:19;;;;;;;1.50;0.50;;;;;;;;;;5001978;28;20242;-74
2023/07/02 14:24:44;;;;;;;1.73;0.50;;;;;;;;;;5002436;28;20089;-74
2023/07/02 14:27:10;;;;;;;0.50;0.50;;;;;;;;;;5002212;28;20326;-71
2023/07/02 14:29:35;;;;;;;0.77;0.50;;;;;;;;;;5001271;28;20022;-72
2023/07/02 14:32:01;;;;;;;0.85;0.50;;;;;;;;;;5002377;28;20314;-69
2023/07/02 14:34:27;;;;;;;1.33;0.55;;;;;;;;;;5002292;28;20026;-73
2023/07/02 14:36:52;;;;;;;0.47;0.47;;;;;;;;;;5002062;28;20329;-73
2023/07/02 14:39:18;;;;;;;0.52;0.40;;;;;;;;;;5002078;28;20033;-73